createdAt,value
2022-10-05T00:00:56.772Z,85.58
2022-10-05T00:01:56.878Z,85.71
2022-10-05T00:02:56.786Z,85.48
2022-10-05T00:03:56.811Z,85.52
2022-10-05T00:04:56.857Z,85.77
2022-10-05T00:05:56.802Z,85.77
2022-10-05T00:06:56.815Z,85.58
2022-10-05T00:07:56.813Z,85.62
2022-10-05T00:08:56.851Z,85.71
2022-10-05T00:09:56.838Z,85.77
2022-10-05T00:10:56.843Z,85.38
2022-10-05T00:11:56.841Z,85.81
2022-10-05T00:12:56.857Z,85.71
2022-10-05T00:13:56.856Z,85.71
2022-10-05T00:14:56.870Z,85.42
2022-10-05T00:15:56.869Z,85.48
2022-10-05T00:16:56.932Z,85.48
2022-10-05T00:17:56.890Z,85.38
2022-10-05T00:18:56.898Z,85.52
2022-10-05T00:19:56.900Z,85.48
2022-10-05T00:20:56.926Z,85.38
2022-10-05T00:21:56.910Z,85.29
2022-10-05T00:22:56.918Z,85.33
2022-10-05T00:23:56.927Z,85.29
2022-10-05T00:24:56.938Z,85.48
2022-10-05T00:25:56.940Z,85.71
2022-10-05T00:26:58.094Z,85.19
2022-10-05T00:27:57.028Z,85.48
2022-10-05T00:28:56.965Z,85.38
2022-10-05T00:29:56.968Z,85.48
2022-10-05T00:30:57.004Z,85.58
2022-10-05T00:31:57.129Z,85.00
2022-10-05T00:32:59.688Z,84.91
2022-10-05T00:33:56.994Z,85.29
2022-10-05T00:34:57.003Z,84.81
2022-10-05T00:35:57.015Z,84.81
2022-10-05T00:36:57.044Z,84.91
2022-10-05T00:37:57.030Z,85.00
2022-10-05T00:38:57.037Z,84.91
2022-10-05T00:39:57.047Z,85.19
2022-10-05T00:40:57.044Z,85.00
2022-10-05T00:41:57.047Z,85.19
2022-10-05T00:42:57.061Z,85.38
2022-10-05T00:43:57.059Z,85.29
2022-10-05T00:44:57.068Z,85.38
2022-10-05T00:45:57.129Z,85.58
2022-10-05T00:46:57.088Z,85.38
2022-10-05T00:47:57.086Z,85.86
2022-10-05T00:48:57.101Z,85.58
2022-10-05T00:49:57.108Z,85.38
2022-10-05T00:50:57.106Z,85.19
2022-10-05T00:51:57.115Z,84.96
2022-10-05T00:52:57.166Z,84.86
2022-10-05T00:53:57.129Z,84.86
2022-10-05T00:54:57.140Z,84.86
2022-10-05T00:55:57.149Z,84.67
2022-10-05T00:56:57.154Z,84.86
2022-10-05T00:57:57.157Z,85.15
2022-10-05T00:58:57.166Z,84.86
2022-10-05T00:59:57.178Z,85.39
2022-10-05T01:00:57.201Z,85.49
2022-10-05T01:01:57.243Z,85.30
2022-10-05T01:02:57.200Z,85.39
2022-10-05T01:03:57.193Z,85.68
2022-10-05T01:04:57.199Z,85.39
2022-10-05T01:05:57.215Z,85.49
2022-10-05T01:06:57.218Z,86.06
2022-10-05T01:07:57.216Z,85.49
2022-10-05T01:08:57.261Z,85.87
2022-10-05T01:09:57.229Z,85.68
2022-10-05T01:10:57.237Z,85.68
2022-10-05T01:11:57.242Z,85.87
2022-10-05T01:12:57.251Z,85.77
2022-10-05T01:13:57.362Z,85.87
2022-10-05T01:25:59.669Z,86.35
2022-10-05T01:26:59.663Z,86.82
2022-10-05T01:27:59.720Z,86.54
2022-10-05T01:28:59.677Z,86.54
2022-10-05T01:29:59.673Z,86.63
2022-10-05T01:30:59.681Z,86.92
2022-10-05T01:31:59.743Z,86.54
2022-10-05T01:32:59.693Z,86.54
2022-10-05T01:33:59.698Z,86.73
2022-10-05T01:34:59.712Z,86.35
2022-10-05T01:35:59.710Z,86.44
2022-10-05T01:36:59.716Z,86.16
2022-10-05T01:37:59.723Z,86.44
2022-10-05T01:38:59.736Z,86.82
2022-10-05T01:39:59.734Z,86.39
2022-10-05T01:40:59.747Z,86.87
2022-10-05T01:41:59.778Z,87.06
2022-10-05T01:42:59.762Z,87.06
2022-10-05T01:43:59.761Z,86.39
2022-10-05T01:44:59.772Z,86.49
2022-10-05T01:45:59.798Z,86.96
2022-10-05T01:46:59.784Z,86.39
2022-10-05T01:47:59.792Z,86.30
2022-10-05T01:48:59.791Z,86.39
2022-10-05T01:49:59.799Z,86.30
2022-10-05T01:50:59.810Z,86.49
2022-10-05T01:51:59.818Z,86.39
2022-10-05T01:52:59.821Z,86.39
2022-10-05T01:53:59.829Z,86.39
2022-10-05T01:54:59.829Z,86.49
2022-10-05T01:55:59.835Z,86.49
2022-10-05T01:56:59.846Z,86.58
2022-10-05T01:57:59.866Z,86.58
2022-10-05T01:58:59.856Z,86.39
2022-10-05T01:59:59.865Z,86.49
2022-10-05T02:00:59.980Z,86.58
2022-10-05T02:01:59.924Z,86.39
2022-10-05T02:02:59.878Z,86.20
2022-10-05T02:03:59.899Z,86.30
2022-10-05T02:05:02.574Z,86.58
2022-10-05T02:05:59.903Z,86.58
2022-10-05T02:06:59.909Z,86.49
2022-10-05T02:07:59.915Z,86.58
2022-10-05T02:08:59.921Z,86.39
2022-10-05T02:09:59.919Z,86.49
2022-10-05T02:10:59.926Z,86.49
2022-10-05T02:11:59.935Z,86.68
2022-10-05T02:12:59.948Z,86.58
2022-10-05T02:13:59.971Z,86.49
2022-10-05T02:14:59.952Z,86.30
2022-10-05T02:16:00.017Z,86.25
2022-10-05T02:16:59.963Z,86.25
2022-10-05T02:17:59.979Z,86.16
2022-10-05T02:18:59.976Z,86.44
2022-10-05T02:19:59.984Z,86.35
2022-10-05T02:20:59.994Z,86.16
2022-10-05T02:21:59.995Z,86.16
2022-10-05T02:23:00.006Z,86.16
2022-10-05T02:24:00.022Z,86.16
2022-10-05T02:25:00.011Z,86.16
2022-10-05T02:26:00.047Z,86.25
2022-10-05T02:27:00.030Z,86.25
2022-10-05T02:28:00.093Z,86.25
2022-10-05T02:29:00.046Z,86.16
2022-10-05T02:30:00.064Z,86.44
2022-10-05T02:31:00.057Z,86.54
2022-10-05T02:32:00.057Z,86.44
2022-10-05T02:33:00.076Z,86.63
2022-10-05T02:34:00.072Z,86.63
2022-10-05T02:35:00.087Z,86.44
2022-10-05T02:36:00.078Z,86.44
2022-10-05T02:37:00.090Z,86.73
2022-10-05T02:38:00.101Z,86.35
2022-10-05T02:39:00.100Z,87.30
2022-10-05T02:40:00.117Z,87.40
2022-10-05T02:41:00.114Z,87.25
2022-10-05T02:42:00.120Z,87.30
2022-10-05T02:43:00.124Z,87.11
2022-10-05T02:44:00.139Z,87.35
2022-10-05T02:45:00.138Z,87.15
2022-10-05T02:46:00.244Z,87.06
2022-10-05T02:47:00.155Z,87.15
2022-10-05T02:48:00.156Z,87.35
2022-10-05T02:49:00.163Z,87.35
2022-10-05T02:50:00.166Z,87.30
2022-10-05T02:51:00.170Z,87.35
2022-10-05T02:52:00.182Z,87.35
2022-10-05T02:53:00.189Z,87.35
2022-10-05T02:54:00.187Z,87.25
2022-10-05T02:55:00.204Z,87.25
2022-10-05T02:56:00.200Z,87.06
2022-10-05T02:57:00.204Z,86.39
2022-10-05T02:58:00.212Z,86.39
2022-10-05T02:59:00.226Z,86.39
2022-10-05T03:00:00.224Z,86.39
2022-10-05T03:01:00.305Z,86.77
2022-10-05T03:02:00.367Z,86.87
2022-10-05T03:03:00.242Z,86.77
2022-10-05T03:04:00.260Z,86.96
2022-10-05T03:05:00.266Z,86.77
2022-10-05T03:06:00.259Z,86.77
2022-10-05T03:07:00.266Z,86.49
2022-10-05T03:08:00.274Z,86.49
2022-10-05T03:09:00.277Z,86.87
2022-10-05T03:10:01.351Z,86.87
2022-10-05T03:11:00.293Z,86.77
2022-10-05T03:12:00.297Z,86.87
2022-10-05T03:13:00.301Z,86.87
2022-10-05T03:14:00.316Z,86.87
2022-10-05T03:15:00.314Z,86.68
2022-10-05T03:16:00.392Z,86.68
2022-10-05T03:17:00.325Z,86.68
2022-10-05T03:18:00.388Z,86.87
2022-10-05T03:19:00.339Z,86.30
2022-10-05T03:20:00.355Z,86.20
2022-10-05T03:21:00.384Z,86.68
2022-10-05T03:22:00.359Z,86.20
2022-10-05T03:23:00.371Z,86.58
2022-10-05T03:24:00.369Z,86.63
2022-10-05T03:25:00.383Z,86.20
2022-10-05T03:26:00.383Z,86.30
2022-10-05T03:27:00.389Z,86.49
2022-10-05T03:28:00.453Z,86.54
2022-10-05T03:29:00.401Z,86.63
2022-10-05T03:30:00.414Z,86.63
2022-10-05T03:31:00.567Z,86.25
2022-10-05T03:32:00.420Z,86.63
2022-10-05T03:33:00.424Z,86.44
2022-10-05T03:34:00.459Z,86.63
2022-10-05T03:35:00.443Z,86.44
2022-10-05T03:36:00.444Z,86.16
2022-10-05T03:37:00.448Z,86.44
2022-10-05T03:38:00.459Z,86.35
2022-10-05T03:39:00.461Z,86.44
2022-10-05T03:40:00.476Z,86.44
2022-10-05T03:41:00.475Z,86.63
2022-10-05T03:42:00.477Z,86.35
2022-10-05T03:43:00.486Z,86.35
2022-10-05T03:44:00.497Z,86.35
2022-10-05T03:45:00.505Z,86.63
2022-10-05T03:46:00.564Z,86.78
2022-10-05T03:47:00.511Z,86.63
2022-10-05T03:48:01.621Z,86.44
2022-10-05T03:49:00.524Z,86.35
2022-10-05T03:50:00.550Z,86.30
2022-10-05T03:51:00.532Z,87.30
2022-10-05T03:52:00.545Z,87.30
2022-10-05T03:53:00.552Z,87.02
2022-10-05T03:54:00.556Z,86.92
2022-10-05T03:55:00.556Z,87.21
2022-10-05T03:56:03.128Z,87.30
2022-10-05T03:57:00.574Z,87.11
2022-10-05T03:58:00.579Z,87.11
2022-10-05T03:59:00.580Z,87.11
2022-10-05T04:00:00.601Z,86.92
2022-10-05T04:01:00.590Z,87.11
2022-10-05T04:02:00.651Z,87.21
2022-10-05T04:03:00.689Z,87.30
2022-10-05T04:04:00.616Z,87.11
2022-10-05T04:05:00.613Z,87.11
2022-10-05T04:06:00.700Z,86.92
2022-10-05T04:07:00.633Z,87.11
2022-10-05T04:08:00.633Z,87.02
2022-10-05T04:09:00.636Z,87.11
2022-10-05T04:10:00.651Z,86.78
2022-10-05T04:11:00.648Z,87.07
2022-10-05T04:12:00.663Z,86.98
2022-10-05T04:13:00.667Z,87.02
2022-10-05T04:14:00.668Z,87.30
2022-10-05T04:15:00.683Z,87.07
2022-10-05T04:16:00.752Z,87.30
2022-10-05T04:17:00.685Z,87.21
2022-10-05T04:18:00.688Z,86.78
2022-10-05T04:19:00.702Z,87.45
2022-10-05T04:20:00.706Z,87.35
2022-10-05T04:21:00.706Z,87.83
2022-10-05T04:22:00.731Z,87.64
2022-10-05T04:23:00.726Z,87.74
2022-10-05T04:24:00.729Z,87.68
2022-10-05T04:25:00.730Z,87.45
2022-10-05T04:26:00.739Z,87.45
2022-10-05T04:27:00.749Z,87.11
2022-10-05T04:28:00.848Z,87.64
2022-10-05T04:29:00.753Z,87.64
2022-10-05T04:30:00.763Z,87.54
2022-10-05T04:31:00.809Z,87.45
2022-10-05T04:32:00.769Z,87.74
2022-10-05T04:33:00.774Z,87.74
2022-10-05T04:34:00.787Z,87.49
2022-10-05T04:35:00.784Z,87.45
2022-10-05T04:36:00.791Z,87.64
2022-10-05T04:37:00.796Z,87.74
2022-10-05T04:38:00.825Z,87.35
2022-10-05T04:39:00.807Z,87.35
2022-10-05T04:40:00.822Z,87.35
2022-10-05T04:41:00.818Z,87.45
2022-10-05T04:42:00.833Z,87.54
2022-10-05T04:43:00.829Z,87.35
2022-10-05T04:44:00.845Z,87.64
2022-10-05T04:45:00.847Z,87.45
2022-10-05T04:46:00.848Z,87.54
2022-10-05T04:47:00.929Z,87.64
2022-10-05T04:48:00.860Z,87.64
2022-10-05T04:49:00.874Z,87.45
2022-10-05T04:50:00.881Z,87.45
2022-10-05T04:51:00.883Z,87.54
2022-10-05T04:52:00.887Z,87.26
2022-10-05T04:53:00.887Z,87.26
2022-10-05T04:54:00.918Z,87.64
2022-10-05T04:55:00.908Z,87.45
2022-10-05T04:56:00.908Z,87.64
2022-10-05T04:57:00.915Z,87.64
2022-10-05T04:58:00.913Z,87.74
2022-10-05T04:59:00.927Z,87.35
2022-10-05T05:00:00.925Z,87.45
2022-10-05T05:01:01.017Z,87.74
2022-10-05T05:02:00.943Z,87.74
2022-10-05T05:03:00.942Z,88.02
2022-10-05T05:04:00.979Z,87.54
2022-10-05T05:05:00.953Z,87.54
2022-10-05T05:06:17.669Z,88.21
2022-10-05T05:07:00.965Z,87.93
2022-10-05T05:08:00.969Z,88.12
2022-10-05T05:09:00.975Z,88.35
2022-10-05T05:10:01.011Z,87.97
2022-10-05T05:11:00.988Z,88.16
2022-10-05T05:12:01.002Z,88.16
2022-10-05T05:13:01.005Z,88.54
2022-10-05T05:14:01.004Z,88.16
2022-10-05T05:15:01.008Z,88.26
2022-10-05T05:16:01.088Z,88.26
2022-10-05T05:17:01.028Z,88.26
2022-10-05T05:18:01.028Z,88.35
2022-10-05T05:19:01.033Z,88.26
2022-10-05T05:20:01.036Z,88.35
2022-10-05T05:21:01.051Z,88.16
2022-10-05T05:22:01.050Z,88.35
2022-10-05T05:23:01.062Z,87.97
2022-10-05T05:24:01.070Z,88.16
2022-10-05T05:25:01.079Z,88.07
2022-10-05T05:26:01.102Z,87.97
2022-10-05T05:27:01.084Z,87.97
2022-10-05T05:28:01.117Z,88.07
2022-10-05T05:29:01.088Z,87.97
2022-10-05T05:30:01.103Z,88.26
2022-10-05T05:31:01.146Z,88.16
2022-10-05T05:32:01.114Z,88.16
2022-10-05T05:33:01.113Z,88.16
2022-10-05T05:34:01.127Z,87.97
2022-10-05T05:35:01.124Z,87.93
2022-10-05T05:36:01.131Z,88.31
2022-10-05T05:37:01.141Z,87.54
2022-10-05T05:38:01.142Z,88.21
2022-10-05T05:39:01.146Z,88.12
2022-10-05T05:40:01.152Z,88.21
2022-10-05T05:41:01.159Z,88.21
2022-10-05T05:42:01.190Z,87.93
2022-10-05T05:43:01.169Z,88.02
2022-10-05T05:44:01.183Z,88.31
2022-10-05T05:45:01.189Z,88.12
2022-10-05T05:46:01.186Z,88.21
2022-10-05T05:47:04.403Z,88.12
2022-10-05T05:48:01.206Z,88.50
2022-10-05T05:49:01.203Z,88.31
2022-10-05T05:50:06.620Z,88.40
2022-10-05T05:51:01.221Z,88.31
2022-10-05T05:52:01.220Z,88.59
2022-10-05T05:53:01.232Z,88.59
2022-10-05T05:54:01.237Z,88.69
2022-10-05T05:55:01.244Z,88.59
2022-10-05T05:56:01.242Z,88.54
2022-10-05T05:57:01.255Z,88.78
2022-10-05T05:58:01.284Z,88.59
2022-10-05T05:59:01.260Z,88.59
2022-10-05T06:00:01.273Z,88.50
2022-10-05T06:01:01.269Z,88.64
2022-10-05T06:02:01.436Z,88.16
2022-10-05T06:03:01.400Z,88.64
2022-10-05T06:04:01.297Z,88.07
2022-10-05T06:05:01.292Z,88.64
2022-10-05T06:06:01.308Z,88.54
2022-10-05T06:07:01.304Z,88.64
2022-10-05T06:08:01.311Z,87.97
2022-10-05T06:09:01.315Z,88.07
2022-10-05T06:10:01.323Z,88.07
2022-10-05T06:11:01.328Z,88.35
2022-10-05T06:12:01.342Z,88.45
2022-10-05T06:13:01.920Z,88.45
2022-10-05T06:14:01.366Z,88.54
2022-10-05T06:15:01.355Z,88.45
2022-10-05T06:16:01.420Z,88.54
2022-10-05T06:17:01.360Z,88.64
2022-10-05T06:18:01.382Z,88.35
2022-10-05T06:19:01.379Z,88.45
2022-10-05T06:20:05.203Z,88.26
2022-10-05T06:21:01.389Z,88.35
2022-10-05T06:22:01.396Z,88.45
2022-10-05T06:23:01.396Z,88.54
2022-10-05T06:24:01.409Z,88.26
2022-10-05T06:25:01.414Z,88.26
2022-10-05T06:26:01.411Z,88.26
2022-10-05T06:27:01.421Z,88.73
2022-10-05T06:28:01.472Z,88.54
2022-10-05T06:29:01.437Z,88.54
2022-10-05T06:30:01.474Z,88.73
2022-10-05T06:31:01.449Z,88.73
2022-10-05T06:32:01.534Z,88.35
2022-10-05T06:33:01.455Z,88.35
2022-10-05T06:34:01.457Z,88.73
2022-10-05T06:35:01.463Z,88.73
2022-10-05T06:36:01.476Z,88.68
2022-10-05T06:37:01.482Z,88.54
2022-10-05T06:38:01.490Z,88.40
2022-10-05T06:39:01.496Z,88.30
2022-10-05T06:40:01.621Z,88.59
2022-10-05T06:41:01.506Z,88.30
2022-10-05T06:42:01.506Z,88.68
2022-10-05T06:43:01.517Z,88.30
2022-10-05T06:44:01.526Z,88.59
2022-10-05T06:45:01.532Z,88.59
2022-10-05T06:46:01.618Z,88.68
2022-10-05T06:47:01.536Z,88.59
2022-10-05T06:48:05.172Z,88.30
2022-10-05T06:49:01.547Z,88.30
2022-10-05T06:50:01.565Z,88.49
2022-10-05T06:51:01.559Z,88.49
2022-10-05T06:52:01.571Z,88.63
2022-10-05T06:53:01.579Z,88.06
2022-10-05T06:54:01.576Z,88.15
2022-10-05T06:55:01.585Z,88.63
2022-10-05T06:56:01.589Z,88.82
2022-10-05T06:57:01.595Z,88.73
2022-10-05T06:58:01.611Z,88.54
2022-10-05T06:59:01.608Z,88.54
2022-10-05T07:00:01.621Z,88.63
2022-10-05T07:01:01.681Z,88.15
2022-10-05T07:02:01.856Z,88.34
2022-10-05T07:03:01.638Z,88.44
2022-10-05T07:04:01.645Z,88.25
2022-10-05T07:05:01.645Z,88.44
2022-10-05T07:06:01.653Z,88.44
2022-10-05T07:07:01.656Z,88.44
2022-10-05T07:08:01.664Z,88.44
2022-10-05T07:09:01.673Z,88.06
2022-10-05T07:10:01.676Z,88.25
2022-10-05T07:11:01.687Z,88.44
2022-10-05T07:12:05.047Z,88.29
2022-10-05T07:13:01.694Z,88.01
2022-10-05T07:14:01.710Z,87.91
2022-10-05T07:15:01.711Z,88.10
2022-10-05T07:16:01.806Z,88.10
2022-10-05T07:17:01.728Z,88.29
2022-10-05T07:18:01.801Z,88.20
2022-10-05T07:19:01.744Z,88.39
2022-10-05T07:20:01.740Z,88.10
2022-10-05T07:21:01.750Z,87.72
2022-10-05T07:22:01.810Z,87.95
2022-10-05T07:23:01.764Z,87.48
2022-10-05T07:24:01.770Z,87.86
2022-10-05T07:25:01.770Z,87.48
2022-10-05T07:26:01.784Z,87.48
2022-10-05T07:27:01.784Z,87.48
2022-10-05T07:28:01.942Z,87.37
2022-10-05T07:29:01.802Z,86.84
2022-10-05T07:30:01.814Z,86.74
2022-10-05T07:31:01.918Z,86.21
2022-10-05T07:32:01.824Z,85.81
2022-10-05T07:33:01.821Z,84.36
2022-10-05T07:34:01.851Z,83.15
2022-10-05T07:35:01.838Z,81.12
2022-10-05T07:36:01.853Z,79.85
2022-10-05T07:37:01.851Z,78.73
2022-10-05T07:38:01.861Z,77.76
2022-10-05T07:39:01.877Z,76.18
2022-10-05T07:40:01.919Z,75.71
2022-10-05T07:41:01.889Z,74.20
2022-10-05T07:42:01.899Z,74.27
2022-10-05T07:43:01.900Z,73.06
2022-10-05T07:44:02.999Z,71.94
2022-10-05T07:45:01.919Z,70.56
2022-10-05T07:46:01.990Z,69.43
2022-10-05T07:47:01.945Z,68.11
2022-10-05T07:50:07.143Z,64.47
2022-10-05T07:51:07.129Z,63.33
2022-10-05T08:19:22.055Z,56.37
2022-10-05T08:20:21.991Z,56.47
2022-10-05T08:21:21.999Z,57.31
2022-10-05T08:22:22.003Z,57.41
2022-10-05T08:23:22.022Z,57.24
2022-10-05T08:24:22.026Z,57.66
2022-10-05T08:25:22.050Z,57.04
2022-10-05T09:41:12.435Z,55.36
2022-10-05T09:42:12.425Z,55.66
2022-10-05T09:43:12.432Z,55.49
2022-10-05T09:44:12.454Z,55.10
2022-10-05T09:45:12.460Z,54.64
2022-10-05T10:17:54.856Z,58.15
2022-10-05T10:18:54.846Z,58.18
2022-10-05T10:19:54.862Z,58.67
2022-10-05T10:20:54.880Z,58.60
2022-10-05T10:21:54.888Z,58.34
2022-10-05T10:22:54.901Z,57.88
2022-10-05T10:24:37.466Z,57.04
2022-10-05T10:25:37.485Z,56.68
2022-10-05T10:26:37.503Z,56.41
2022-10-05T14:15:42.249Z,53.75
2022-10-05T14:16:40.247Z,54.43
2022-10-05T14:17:39.790Z,54.14
2022-10-05T15:50:02.838Z,61.71
2022-10-05T15:51:02.842Z,61.42
2022-10-05T15:52:02.831Z,62.09
2022-10-05T15:53:02.851Z,61.90
2022-10-05T15:54:06.702Z,62.48
2022-10-05T15:55:02.876Z,61.90
2022-10-05T15:56:02.887Z,62.38
2022-10-05T15:57:02.899Z,62.29
2022-10-05T15:58:02.903Z,62.87
2022-10-05T15:59:02.923Z,62.38
2022-10-05T16:00:02.932Z,62.48
2022-10-05T16:01:02.981Z,63.15
2022-10-05T16:02:03.044Z,62.57
2022-10-05T16:03:02.968Z,63.25
2022-10-05T16:04:02.973Z,62.93
2022-10-05T16:07:52.055Z,63.60
2022-10-05T16:08:48.903Z,63.60
2022-10-05T16:13:42.252Z,64.47
2022-10-05T16:19:30.322Z,65.14
2022-10-05T16:20:30.322Z,66.10
2022-10-05T16:21:30.347Z,65.63
2022-10-05T16:22:30.354Z,65.53
2022-10-05T16:23:30.493Z,65.59
2022-10-05T16:24:30.366Z,65.53
2022-10-05T16:25:30.384Z,66.30
2022-10-05T16:26:30.395Z,65.59
2022-10-05T16:27:30.401Z,66.36
2022-10-05T16:28:30.444Z,66.17
2022-10-05T16:29:30.432Z,66.36
2022-10-05T16:30:30.455Z,67.03
2022-10-05T16:31:30.452Z,66.65
2022-10-05T16:32:30.464Z,66.74
2022-10-05T16:33:30.465Z,66.84
2022-10-05T16:34:30.479Z,66.74
2022-10-05T16:35:30.494Z,67.13
2022-10-05T16:36:30.499Z,67.22
2022-10-05T16:37:30.518Z,67.32
2022-10-05T16:38:30.527Z,66.94
2022-10-05T16:39:30.559Z,67.38
2022-10-05T16:40:30.541Z,67.61
2022-10-05T16:41:30.561Z,67.86
2022-10-05T16:42:30.564Z,67.77
2022-10-05T16:43:30.573Z,68.06
2022-10-05T16:44:30.584Z,68.25
2022-10-05T16:45:30.594Z,68.25
2022-10-05T16:46:30.704Z,68.15
2022-10-05T16:47:30.618Z,68.54
2022-10-05T16:48:30.638Z,68.35
2022-10-05T16:49:30.646Z,68.35
2022-10-05T16:50:30.653Z,68.73
2022-10-05T16:51:30.659Z,68.73
2022-10-05T16:52:30.669Z,68.83
2022-10-05T16:53:30.687Z,68.73
2022-10-05T16:54:30.692Z,68.83
2022-10-05T16:55:30.729Z,69.02
2022-10-05T16:56:30.711Z,68.92
2022-10-05T16:57:30.720Z,69.50
2022-10-05T16:58:30.741Z,69.21
2022-10-05T16:59:30.749Z,69.69
2022-10-05T17:00:30.759Z,69.79
2022-10-05T17:01:30.782Z,69.50
2022-10-05T17:02:30.854Z,69.50
2022-10-05T17:03:30.793Z,70.27
2022-10-05T17:04:30.793Z,69.69
2022-10-05T17:05:30.812Z,69.69
2022-10-05T17:06:30.826Z,70.17
2022-10-05T17:07:30.824Z,70.37
2022-10-05T17:08:30.839Z,70.46
2022-10-05T17:09:30.887Z,70.33
2022-10-05T17:10:30.855Z,70.46
2022-10-05T17:11:30.889Z,70.43
2022-10-05T17:12:30.875Z,71.00
2022-10-05T17:13:30.894Z,70.81
2022-10-05T17:14:30.897Z,70.62
2022-10-05T17:15:30.929Z,70.62
2022-10-05T17:16:30.916Z,70.81
2022-10-05T17:17:30.932Z,70.72
2022-10-05T17:18:30.945Z,71.00
2022-10-05T17:19:30.954Z,71.10
2022-10-05T17:20:30.964Z,71.58
2022-10-05T17:21:30.975Z,71.39
2022-10-05T17:22:30.984Z,71.58
2022-10-05T17:23:30.988Z,71.39
2022-10-05T17:24:31.003Z,71.19
2022-10-05T17:25:31.008Z,71.19
2022-10-05T17:26:31.026Z,71.48
2022-10-05T17:27:31.050Z,71.39
2022-10-05T17:28:31.076Z,71.39
2022-10-05T17:29:31.047Z,71.58
2022-10-05T17:30:31.126Z,71.48
2022-10-05T17:31:31.085Z,71.39
2022-10-05T17:32:31.077Z,71.58
2022-10-05T17:33:31.098Z,71.29
2022-10-05T17:34:31.105Z,71.39
2022-10-05T17:35:31.117Z,71.67
2022-10-05T17:36:31.126Z,71.58
2022-10-05T17:37:31.134Z,72.16
2022-10-05T17:38:31.145Z,71.67
2022-10-05T17:39:31.155Z,71.87
2022-10-05T17:40:31.159Z,71.87
2022-10-05T17:41:31.169Z,71.96
2022-10-05T17:42:31.185Z,71.96
2022-10-05T17:43:31.284Z,72.41
2022-10-05T17:44:31.197Z,72.50
2022-10-05T17:45:31.217Z,72.50
2022-10-05T17:46:31.320Z,72.12
2022-10-05T17:47:31.238Z,72.22
2022-10-05T17:48:31.248Z,72.89
2022-10-05T17:49:31.248Z,72.69
2022-10-05T17:50:31.259Z,72.64
2022-10-05T17:51:31.271Z,72.79
2022-10-05T17:52:31.279Z,72.69
2022-10-05T17:53:31.298Z,72.60
2022-10-05T17:54:31.299Z,72.69
2022-10-05T17:55:31.319Z,72.89
2022-10-05T17:56:31.318Z,72.99
2022-10-05T17:57:31.337Z,72.99
2022-10-05T17:58:31.339Z,72.60
2022-10-05T17:59:31.450Z,73.27
2022-10-05T18:00:31.362Z,73.46
2022-10-05T18:01:31.439Z,73.46
2022-10-05T18:02:36.006Z,73.27
2022-10-05T18:03:31.415Z,73.85
2022-10-05T18:04:31.400Z,73.37
2022-10-05T18:05:31.418Z,73.66
2022-10-05T18:06:31.418Z,73.37
2022-10-05T18:07:31.430Z,73.75
2022-10-05T18:08:33.118Z,73.66
2022-10-05T18:09:31.456Z,73.56
2022-10-05T18:10:31.465Z,73.66
2022-10-05T18:11:31.469Z,73.56
2022-10-05T18:12:31.485Z,73.27
2022-10-05T18:13:31.488Z,73.85
2022-10-05T18:14:31.504Z,73.18
2022-10-05T18:15:31.610Z,73.37
2022-10-05T18:16:31.518Z,73.27
2022-10-05T18:17:31.530Z,72.92
2022-10-05T18:18:31.552Z,72.69
2022-10-05T18:19:31.556Z,72.79
2022-10-05T18:20:31.720Z,72.99
2022-10-05T18:21:31.573Z,73.18
2022-10-05T18:22:31.580Z,72.83
2022-10-05T18:23:31.594Z,72.54
2022-10-05T18:24:31.595Z,72.69
2022-10-05T18:25:31.605Z,72.99
2022-10-05T18:26:31.622Z,72.69
2022-10-05T18:27:31.632Z,72.99
2022-10-05T18:28:31.676Z,72.99
2022-10-05T18:29:31.653Z,72.89
2022-10-05T18:30:31.653Z,72.60
2022-10-05T18:31:31.762Z,72.41
2022-10-05T18:32:31.680Z,72.50
2022-10-05T18:33:31.688Z,73.08
2022-10-05T18:35:14.245Z,72.99
2022-10-05T18:36:14.246Z,72.99
2022-10-05T18:37:15.271Z,72.79
2022-10-05T18:39:12.043Z,72.79
2022-10-05T18:40:11.857Z,72.69
2022-10-05T18:41:11.867Z,72.69
2022-10-05T18:42:11.896Z,72.79
2022-10-05T18:43:15.861Z,73.08
2022-10-05T18:44:11.889Z,73.46
2022-10-05T18:45:11.895Z,73.46
2022-10-05T18:46:11.958Z,73.27
2022-10-05T18:47:11.942Z,73.56
2022-10-05T18:55:13.825Z,74.23
2022-10-05T18:56:15.248Z,74.04
2022-10-05T18:58:06.410Z,74.04
2022-10-05T18:59:06.419Z,74.13
2022-10-05T19:00:06.435Z,73.75
2022-10-05T19:01:06.438Z,73.85
2022-10-05T19:02:06.603Z,74.43
2022-10-05T19:03:06.477Z,74.43
2022-10-05T19:04:06.464Z,74.23
2022-10-05T19:06:19.081Z,74.62
2022-10-05T19:08:36.708Z,74.43
2022-10-05T19:09:36.712Z,74.62
2022-10-05T19:10:36.722Z,74.52
2022-10-05T19:11:36.736Z,74.52
2022-10-05T19:12:41.234Z,74.52
2022-10-05T19:13:36.756Z,75.00
2022-10-05T19:14:36.865Z,74.81
2022-10-05T19:15:36.867Z,74.04
2022-10-05T19:16:36.777Z,74.33
2022-10-05T19:17:36.786Z,75.00
2022-10-05T19:18:36.815Z,74.52
2022-10-05T19:19:36.810Z,74.62
2022-10-05T19:20:36.813Z,74.43
2022-10-05T19:21:36.831Z,75.00
2022-10-05T19:22:36.833Z,74.81
2022-10-05T19:23:36.842Z,74.90
2022-10-05T19:24:36.850Z,74.52
2022-10-05T19:25:36.868Z,74.52
2022-10-05T19:26:36.870Z,74.52
2022-10-05T19:27:36.879Z,74.62
2022-10-05T19:28:36.920Z,74.90
2022-10-05T19:29:36.904Z,74.90
2022-10-05T19:30:36.907Z,74.90
2022-10-05T19:31:36.950Z,74.71
2022-10-05T19:32:36.924Z,75.00
2022-10-05T19:33:36.937Z,74.90
2022-10-05T19:34:36.975Z,75.15
2022-10-05T19:35:36.960Z,75.15
2022-10-05T19:36:36.963Z,75.15
2022-10-05T19:37:36.974Z,74.87
2022-10-05T19:38:36.982Z,74.96
2022-10-05T19:39:36.997Z,75.15
2022-10-05T19:40:36.998Z,75.06
2022-10-05T19:41:37.016Z,74.96
2022-10-05T19:42:37.019Z,74.96
2022-10-05T19:43:37.035Z,74.77
2022-10-05T19:44:37.042Z,74.96
2022-10-05T19:45:37.047Z,74.96
2022-10-05T19:46:37.106Z,75.63
2022-10-05T19:47:40.317Z,75.54
2022-10-05T19:48:37.079Z,75.35
2022-10-05T19:49:37.081Z,75.54
2022-10-05T19:50:37.113Z,75.92
2022-10-05T19:51:37.100Z,75.82
2022-10-05T19:52:37.114Z,76.02
2022-10-05T19:53:37.147Z,75.92
2022-10-05T19:54:37.126Z,75.73
2022-10-05T19:55:37.137Z,75.92
2022-10-05T19:56:37.146Z,76.12
2022-10-05T19:57:37.154Z,76.02
2022-10-05T19:58:37.163Z,75.92
2022-10-05T19:59:37.179Z,75.92
2022-10-05T20:00:37.193Z,76.31
2022-10-05T20:01:37.233Z,76.31
2022-10-05T20:02:41.783Z,76.50
2022-10-05T20:03:37.209Z,76.40
2022-10-05T20:04:37.225Z,76.50
2022-10-05T20:05:37.235Z,76.40
2022-10-05T20:06:37.259Z,76.07
2022-10-05T20:07:37.243Z,76.31
2022-10-05T20:08:37.255Z,75.98
2022-10-05T20:09:37.270Z,76.31
2022-10-05T20:10:37.279Z,76.56
2022-10-05T20:11:37.282Z,76.56
2022-10-05T20:12:37.291Z,76.27
2022-10-05T20:13:37.307Z,76.31
2022-10-05T20:14:37.316Z,76.56
2022-10-05T20:15:37.325Z,76.27
2022-10-05T20:16:37.497Z,76.59
2022-10-05T20:17:37.337Z,76.56
2022-10-05T20:18:37.344Z,76.40
2022-10-05T20:19:37.362Z,76.46
2022-10-05T20:20:37.372Z,77.17
2022-10-05T20:21:37.381Z,76.94
2022-10-05T20:22:37.403Z,76.98
2022-10-05T20:23:37.390Z,76.88
2022-10-05T20:24:37.398Z,76.56
2022-10-05T20:25:37.418Z,76.27
2022-10-05T20:26:37.417Z,76.88
2022-10-05T20:27:37.522Z,76.84
2022-10-05T20:28:37.534Z,77.36
2022-10-05T20:29:37.450Z,77.04
2022-10-05T20:30:37.456Z,77.13
2022-10-05T20:31:37.602Z,77.04
2022-10-05T20:32:37.479Z,77.08
2022-10-05T20:33:37.483Z,77.08
2022-10-05T20:34:37.491Z,77.61
2022-10-05T20:35:37.508Z,77.51
2022-10-05T20:36:37.515Z,77.23
2022-10-05T20:37:37.519Z,77.51
2022-10-05T20:38:41.076Z,77.51
2022-10-05T20:39:37.535Z,77.80
2022-10-05T20:40:37.552Z,77.71
2022-10-05T20:41:37.557Z,77.90
2022-10-05T20:42:37.571Z,77.80
2022-10-05T20:43:37.574Z,78.00
2022-10-05T20:44:37.581Z,78.38
2022-10-05T20:45:37.600Z,78.38
2022-10-05T20:46:37.683Z,78.77
2022-10-05T20:47:37.618Z,78.38
2022-10-05T20:48:37.626Z,78.77
2022-10-05T20:49:37.628Z,78.77
2022-10-05T20:50:37.637Z,79.05
2022-10-05T20:51:37.646Z,78.77
2022-10-05T20:52:37.654Z,79.05
2022-10-05T20:53:37.676Z,79.14
2022-10-05T20:54:37.808Z,79.34
2022-10-05T20:55:37.682Z,79.14
2022-10-05T20:56:37.709Z,79.14
2022-10-05T20:57:37.707Z,78.86
2022-10-05T20:58:37.711Z,79.44
2022-10-05T20:59:37.725Z,78.86
2022-10-05T21:00:37.826Z,79.44
2022-10-05T21:01:37.747Z,79.44
2022-10-05T21:02:37.753Z,79.53
2022-10-05T21:03:37.762Z,79.24